Time;durP1;ratioP1;P1;durP2;ratioP2;P2;SDS_P1;SDS_P2;PMS_P1;PMS_P2;Temp;Humidity;BMP_temperature;BMP_pressure;BME280_temperature;BME280_humidity;BME280_pressure;Samples;Min_cycle;Max_cycle;Signal;HPM_P1;HPM_P2
2021/01/04 00:01:59;;;;;;;43.52;23.32;;;;;;;2.25;100.00;100563.62;1712553;83;21447;-76
2021/01/04 00:04:50;;;;;;;34.33;19.85;;;;;;;2.22;100.00;100563.12;1690000;83;21184;-71
2021/01/04 00:08:12;;;;;;;46.15;22.65;;;;;;;2.23;100.00;100566.10;1705285;82;21188;-70
2021/01/04 00:11:15;;;;;;;51.05;29.32;;;;;;;2.26;100.00;100561.77;1684384;85;21194;-70
2021/01/04 00:14:01;;;;;;;36.65;22.35;;;;;;;2.25;100.00;100562.29;1709943;82;21209;-72
2021/01/04 00:17:06;;;;;;;51.00;28.17;;;;;;;2.30;100.00;100563.09;1699234;83;21169;-70
2021/01/04 00:19:59;;;;;;;46.15;24.52;;;;;;;2.33;100.00;100563.56;1713163;83;21593;-71
2021/01/04 00:22:50;;;;;;;51.60;26.73;;;;;;;2.38;100.00;100553.73;1713274;83;21578;-71
2021/01/04 00:25:30;;;;;;;50.05;25.82;;;;;;;2.40;100.00;100547.77;1698554;83;21164;-71
2021/01/04 00:28:04;;;;;;;45.92;24.98;;;;;;;2.44;100.00;100551.22;1680723;85;22261;-70
2021/01/04 00:30:46;;;;;;;44.77;24.80;;;;;;;2.46;100.00;100549.70;1682942;85;21077;-70
2021/01/04 00:33:34;;;;;;;47.58;28.30;;;;;;;2.44;100.00;100544.59;1660298;85;21204;-71
2021/01/04 00:36:06;;;;;;;47.05;25.48;;;;;;;2.41;100.00;100540.11;1694990;83;21410;-70
2021/01/04 00:39:16;;;;;;;49.53;26.75;;;;;;;2.41;100.00;100533.47;1682436;85;21216;-71
2021/01/04 00:42:04;;;;;;;48.13;27.82;;;;;;;2.41;100.00;100536.13;1684368;85;21180;-72
2021/01/04 00:45:12;;;;;;;48.45;27.87;;;;;;;2.43;100.00;100542.09;1694133;83;21231;-69
2021/01/04 00:48:08;;;;;;;44.53;28.77;;;;;;;2.44;100.00;100539.77;1686255;83;21183;-68
2021/01/04 00:51:11;;;;;;;44.93;23.42;;;;;;;2.46;100.00;100527.12;1684356;85;21213;-70
2021/01/04 00:53:45;;;;;;;43.73;23.95;;;;;;;2.49;100.00;100536.92;1691700;83;21037;-72
2021/01/04 00:56:52;;;;;;;41.28;22.82;;;;;;;2.49;100.00;100538.74;1694687;83;21208;-70
2021/01/04 00:59:34;;;;;;;46.00;25.10;;;;;;;2.51;100.00;100532.24;1701932;83;21172;-82
2021/01/04 01:02:13;;;;;;;52.13;29.87;;;;;;;2.50;100.00;100530.58;1692313;84;21153;-70
2021/01/04 01:05:06;;;;;;;44.48;23.85;;;;;;;2.55;100.00;100528.72;1735018;81;21208;-68
2021/01/04 01:08:23;;;;;;;44.53;22.85;;;;;;;2.58;100.00;100536.35;1723490;81;21049;-70
2021/01/04 01:10:59;;;;;;;45.85;28.98;;;;;;;2.53;100.00;100545.34;1721004;81;21020;-69
2021/01/04 01:13:59;;;;;;;51.05;29.23;;;;;;;2.45;100.00;100535.59;1753836;81;21545;-71
2021/01/04 01:16:50;;;;;;;49.38;29.25;;;;;;;2.42;100.00;100542.59;1750214;81;21137;-70
2021/01/04 01:19:36;;;;;;;49.30;30.30;;;;;;;2.47;100.00;100536.75;1889248;76;22611;-68
2021/01/04 01:22:05;;;;;;;44.33;25.20;;;;;;;2.38;100.00;100538.64;1860301;77;20975;-69
2021/01/04 01:24:33;;;;;;;48.50;28.30;;;;;;;2.45;100.00;100540.91;1792154;78;21209;-70
2021/01/04 01:27:35;;;;;;;48.90;27.07;;;;;;;2.41;100.00;100534.30;1786415;80;21016;-68
2021/01/04 01:30:32;;;;;;;45.75;26.12;;;;;;;2.43;100.00;100540.77;1780045;80;21115;-68
2021/01/04 01:33:46;;;;;;;44.50;25.85;;;;;;;2.44;100.00;100541.94;1783602;80;21023;-71
2021/01/04 01:36:34;;;;;;;45.08;25.85;;;;;;;2.42;100.00;100537.78;1786388;80;21644;-68
2021/01/04 01:39:41;;;;;;;51.95;32.03;;;;;;;2.45;100.00;100526.80;1729828;81;21359;-68
2021/01/04 01:42:43;;;;;;;41.60;25.00;;;;;;;2.47;100.00;100526.97;1797822;78;21043;-68
2021/01/04 01:45:26;;;;;;;43.02;26.33;;;;;;;2.52;100.00;100536.55;1773054;80;20999;-72
2021/01/04 01:47:59;;;;;;;54.03;29.77;;;;;;;2.55;100.00;100536.69;1800179;79;21158;-67
2021/01/04 01:50:52;;;;;;;44.67;24.92;;;;;;;2.58;100.00;100535.85;1814368;78;21119;-70
2021/01/04 01:53:45;;;;;;;51.20;30.72;;;;;;;2.61;100.00;100534.16;1812110;78;21186;-67
2021/01/04 01:56:44;;;;;;;49.03;26.70;;;;;;;2.67;100.00;100538.44;1735752;80;21588;-68
2021/01/04 01:59:29;;;;;;;49.63;28.42;;;;;;;2.71;100.00;100535.74;1806025;79;21186;-67
2021/01/04 02:02:29;;;;;;;43.87;26.65;;;;;;;2.70;100.00;100528.77;1815712;78;20988;-72
2021/01/04 02:05:17;;;;;;;47.58;29.02;;;;;;;2.66;100.00;100532.30;1821659;78;21163;-67
2021/01/04 02:08:11;;;;;;;49.15;28.75;;;;;;;2.64;100.00;100532.96;1824099;78;21203;-70
2021/01/04 02:10:43;;;;;;;53.42;29.95;;;;;;;2.64;100.00;100528.48;1821283;78;21118;-68
2021/01/04 02:13:33;;;;;;;48.02;28.07;;;;;;;2.69;100.00;100529.77;1769889;80;21150;-67
2021/01/04 02:16:11;;;;;;;52.10;30.10;;;;;;;2.66;100.00;100536.78;1784716;80;21587;-68
2021/01/04 02:18:52;;;;;;;48.50;29.70;;;;;;;2.67;100.00;100531.80;1786732;79;21615;-69
2021/01/04 02:22:03;;;;;;;52.70;28.30;;;;;;;2.77;100.00;100535.04;1789577;80;21362;-68
2021/01/04 02:24:30;;;;;;;53.20;28.10;;;;;;;2.83;100.00;100522.38;1785385;80;21117;-67
2021/01/04 02:27:08;;;;;;;50.73;27.42;;;;;;;2.77;100.00;100533.71;1784798;80;21176;-68
2021/01/04 02:29:35;;;;;;;48.40;30.82;;;;;;;2.67;100.00;100535.78;1756295;80;20985;-70
2021/01/04 02:32:05;;;;;;;46.68;26.57;;;;;;;2.61;100.00;100528.02;1766248;80;21118;-68
2021/01/04 02:34:40;;;;;;;55.80;28.70;;;;;;;2.66;100.00;100526.98;1780911;80;21376;-67
2021/01/04 02:37:07;;;;;;;53.68;30.48;;;;;;;2.70;100.00;100520.81;1764224;80;21930;-68
2021/01/04 02:39:58;;;;;;;47.27;29.32;;;;;;;2.76;100.00;100520.10;1782193;80;20972;-69
2021/01/04 02:42:35;;;;;;;45.40;25.52;;;;;;;2.81;100.00;100527.03;1789474;80;21145;-68
2021/01/04 02:45:09;;;;;;;55.30;31.87;;;;;;;2.81;100.00;100527.03;1767967;80;21008;-69
2021/01/04 02:48:02;;;;;;;53.42;30.08;;;;;;;2.78;100.00;100532.72;1756339;81;25116;-74
2021/01/04 02:51:03;;;;;;;51.53;29.95;;;;;;;2.77;100.00;100542.51;1759875;81;21605;-86
2021/01/04 02:54:00;;;;;;;45.55;26.93;;;;;;;2.82;100.00;100541.97;1780059;80;20995;-77
2021/01/04 02:57:11;;;;;;;45.55;28.25;;;;;;;2.79;100.00;100543.14;1789028;80;21178;-67
2021/01/04 02:59:44;;;;;;;51.18;30.10;;;;;;;2.77;100.00;100543.01;1788789;80;21568;-68
2021/01/04 03:02:20;;;;;;;49.45;28.17;;;;;;;2.78;100.00;100542.02;1780991;80;21338;-69
2021/01/04 03:04:48;;;;;;;54.80;28.25;;;;;;;2.72;100.00;100543.55;1749801;82;21177;-69
2021/01/04 03:07:24;;;;;;;48.23;25.55;;;;;;;2.66;100.00;100545.58;1749845;82;21134;-68
2021/01/04 03:09:53;;;;;;;53.58;26.97;;;;;;;2.67;100.00;100544.58;1749413;81;21181;-68
2021/01/04 03:12:32;;;;;;;57.53;29.90;;;;;;;2.68;100.00;100552.05;1749077;81;21560;-67
2021/01/04 03:15:21;;;;;;;50.48;27.35;;;;;;;2.66;100.00;100542.09;1749865;82;21377;-69
2021/01/04 03:17:54;;;;;;;49.35;28.67;;;;;;;2.70;100.00;100536.74;1749685;81;21197;-68
2021/01/04 03:20:24;;;;;;;48.55;27.73;;;;;;;2.71;100.00;100533.09;1752936;81;21155;-68
2021/01/04 03:22:52;;;;;;;51.42;28.42;;;;;;;2.74;100.00;100527.41;1752320;81;21147;-68
2021/01/04 03:25:52;;;;;;;41.18;25.20;;;;;;;2.75;100.00;100535.20;1750935;82;21640;-68
2021/01/04 03:28:29;;;;;;;51.65;25.35;;;;;;;2.73;100.00;100533.25;1752766;81;21905;-67
2021/01/04 03:30:57;;;;;;;50.28;28.25;;;;;;;2.70;100.00;100534.09;1752765;81;21550;-72
2021/01/04 03:33:25;;;;;;;45.43;24.90;;;;;;;2.73;100.00;100536.41;1753709;81;22249;-69
2021/01/04 03:35:53;;;;;;;54.30;29.77;;;;;;;2.78;100.00;100541.48;1754479;81;21845;-68
2021/01/04 03:38:21;;;;;;;50.03;28.40;;;;;;;2.80;100.00;100528.86;1753026;81;21156;-67
2021/01/04 03:40:49;;;;;;;50.23;29.90;;;;;;;2.81;100.00;100533.67;1752833;81;21401;-68
2021/01/04 03:43:17;;;;;;;52.10;30.12;;;;;;;2.80;100.00;100523.55;1745461;81;21663;-68
2021/01/04 03:45:44;;;;;;;44.18;25.80;;;;;;;2.78;100.00;100522.89;1722773;83;21560;-72
2021/01/04 03:48:12;;;;;;;48.45;25.65;;;;;;;2.82;100.00;100528.19;1722806;83;21126;-68
2021/01/04 03:50:39;;;;;;;60.78;32.23;;;;;;;2.83;100.00;100529.81;1722764;83;21138;-67
2021/01/04 03:53:07;;;;;;;52.45;29.60;;;;;;;2.82;100.00;100530.84;1737301;81;21383;-68
2021/01/04 03:55:38;;;;;;;53.90;28.15;;;;;;;2.79;100.00;100530.36;1739101;81;21000;-68
2021/01/04 03:58:05;;;;;;;47.15;26.85;;;;;;;2.87;100.00;100529.81;1751645;81;21137;-68
2021/01/04 04:00:33;;;;;;;45.03;26.10;;;;;;;2.94;100.00;100528.07;1745918;81;21117;-69
2021/01/04 04:03:00;;;;;;;48.00;26.30;;;;;;;2.93;100.00;100521.59;1726394;81;21173;-75
2021/01/04 04:05:27;;;;;;;44.03;23.75;;;;;;;2.89;100.00;100525.63;1752652;81;22254;-69
2021/01/04 04:07:55;;;;;;;47.75;25.20;;;;;;;2.86;100.00;100514.87;1749224;81;21886;-69
2021/01/04 04:10:24;;;;;;;47.83;26.90;;;;;;;2.90;100.00;100517.98;1751665;81;20963;-70
2021/01/04 04:12:52;;;;;;;66.05;32.15;;;;;;;2.90;100.00;100516.66;1750678;81;21189;-68
2021/01/04 04:15:20;;;;;;;45.90;25.37;;;;;;;2.94;100.00;100511.30;1750341;81;21155;-67
2021/01/04 04:17:48;;;;;;;43.90;25.72;;;;;;;3.00;100.00;100519.89;1753175;81;21157;-67
2021/01/04 04:20:22;;;;;;;48.15;28.60;;;;;;;3.00;100.00;100511.91;1761922;81;20965;-66
2021/01/04 04:22:51;;;;;;;55.88;27.77;;;;;;;2.94;100.00;100517.44;1759749;81;21155;-66
2021/01/04 04:25:20;;;;;;;44.27;25.40;;;;;;;2.95;100.00;100512.95;1762189;81;21088;-66
2021/01/04 04:27:47;;;;;;;53.30;24.72;;;;;;;2.99;100.00;100512.91;1732339;81;21163;-70
2021/01/04 04:30:17;;;;;;;44.50;27.50;;;;;;;3.00;100.00;100515.41;1762205;81;21205;-66
2021/01/04 04:32:45;;;;;;;40.33;24.10;;;;;;;2.97;100.00;100514.41;1757850;81;21179;-68
2021/01/04 04:35:13;;;;;;;42.08;24.35;;;;;;;2.94;100.00;100517.94;1748868;80;20968;-71
2021/01/04 04:37:42;;;;;;;47.93;26.48;;;;;;;2.93;100.00;100507.81;1755559;80;21159;-67
2021/01/04 04:40:18;;;;;;;41.15;23.30;;;;;;;2.95;100.00;100500.50;1759256;81;21551;-68
2021/01/04 04:42:46;;;;;;;54.20;28.38;;;;;;;2.99;100.00;100497.80;1749714;82;21383;-67
2021/01/04 04:45:18;;;;;;;45.23;25.27;;;;;;;2.94;100.00;100498.84;1735949;81;21180;-65
2021/01/04 04:48:38;;;;;;;46.10;25.37;;;;;;;2.92;100.00;100506.69;1732562;81;21173;-67
2021/01/04 04:51:28;;;;;;;46.33;28.65;;;;;;;2.92;100.00;100506.19;1734635;82;21170;-67
2021/01/04 04:54:25;;;;;;;52.53;29.23;;;;;;;2.97;100.00;100493.69;1760800;81;21164;-67
2021/01/04 04:57:34;;;;;;;49.83;28.10;;;;;;;3.05;100.00;100507.72;1739610;82;21348;-66
2021/01/04 05:00:33;;;;;;;46.42;28.47;;;;;;;3.00;100.00;100502.61;1745149;81;21209;-67
2021/01/04 05:03:15;;;;;;;50.12;29.02;;;;;;;2.97;100.00;100491.03;1683184;83;21078;-67
2021/01/04 05:06:15;;;;;;;48.70;26.93;;;;;;;2.98;100.00;100487.34;1665417;85;21160;-67
2021/01/04 05:09:03;;;;;;;48.25;27.42;;;;;;;3.02;100.00;100498.75;1685147;84;21145;-67
2021/01/04 05:11:35;;;;;;;44.60;28.17;;;;;;;2.98;100.00;100493.48;1704856;82;21274;-68
2021/01/04 05:14:08;;;;;;;53.33;28.40;;;;;;;2.94;100.00;100498.84;1681704;85;21024;-69
2021/01/04 05:16:53;;;;;;;47.70;27.50;;;;;;;2.95;100.00;100493.86;1681402;85;21183;-68
2021/01/04 05:19:45;;;;;;;46.08;26.77;;;;;;;2.93;100.00;100494.53;1661400;85;21610;-71
2021/01/04 05:22:34;;;;;;;45.70;27.65;;;;;;;2.91;100.00;100491.75;1686684;83;21430;-68
2021/01/04 05:25:48;;;;;;;39.83;26.35;;;;;;;2.90;100.00;100486.93;1710176;83;21446;-68
2021/01/04 05:28:47;;;;;;;;;;;;;;;2.98;100.00;100496.64;1683948;84;21064;-68
2021/01/04 05:31:48;;;;;;;43.87;27.55;;;;;;;2.99;100.00;100490.33;1706023;84;20296;-67
2021/01/04 05:34:34;;;;;;;42.80;23.35;;;;;;;2.93;100.00;100499.02;1615094;85;21227;-66
2021/01/04 05:37:10;;;;;;;45.48;22.90;;;;;;;2.90;100.00;100494.91;1684933;84;21177;-67
2021/01/04 05:40:05;;;;;;;34.05;21.87;;;;;;;2.88;100.00;100492.91;1705236;84;22538;-66
2021/01/04 05:43:15;;;;;;;46.73;28.10;;;;;;;2.88;100.00;100500.06;1718110;82;21995;-68
2021/01/04 05:46:00;;;;;;;40.52;23.42;;;;;;;2.87;100.00;100507.73;1707741;84;21162;-67
2021/01/04 05:48:44;;;;;;;45.85;28.17;;;;;;;2.90;100.00;100506.86;1732451;82;21129;-70
2021/01/04 05:51:27;;;;;;;41.60;25.92;;;;;;;2.86;100.00;100500.26;1674187;85;21168;-68
2021/01/04 05:53:54;;;;;;;32.80;20.43;;;;;;;2.91;100.00;100513.83;1731521;82;21602;-68
2021/01/04 05:56:25;;;;;;;44.60;27.35;;;;;;;2.92;100.00;100518.14;1706733;84;21145;-67
2021/01/04 05:58:55;;;;;;;39.35;26.45;;;;;;;2.95;100.00;100517.77;1706743;84;21030;-68
2021/01/04 06:01:25;;;;;;;47.03;27.40;;;;;;;2.99;100.00;100519.06;1723107;82;21173;-68
2021/01/04 06:04:06;;;;;;;36.28;21.40;;;;;;;3.04;100.00;100514.53;1703847;84;21196;-68
2021/01/04 06:06:57;;;;;;;41.08;22.85;;;;;;;3.08;100.00;100511.83;1703497;84;21439;-69
2021/01/04 06:09:25;;;;;;;39.15;25.40;;;;;;;3.09;100.00;100517.47;1676955;85;21210;-67
2021/01/04 06:12:03;;;;;;;41.88;26.25;;;;;;;3.13;100.00;100516.09;1713718;83;21169;-67
2021/01/04 06:14:36;;;;;;;42.67;23.07;;;;;;;3.15;100.00;100513.27;1724356;83;21153;-67
2021/01/04 06:17:11;;;;;;;40.65;23.57;;;;;;;3.13;100.00;100520.08;1724555;82;21544;-67
2021/01/04 06:19:42;;;;;;;38.10;25.35;;;;;;;3.13;100.00;100523.24;1703312;84;22240;-72
2021/01/04 06:22:12;;;;;;;40.67;25.40;;;;;;;3.18;100.00;100523.52;1674771;85;21160;-68
2021/01/04 06:24:41;;;;;;;44.23;21.20;;;;;;;3.21;100.00;100521.85;1678516;85;21136;-67
2021/01/04 06:27:20;;;;;;;46.18;25.70;;;;;;;3.16;100.00;100523.73;1724953;82;21177;-68
2021/01/04 06:29:49;;;;;;;42.60;27.20;;;;;;;3.13;100.00;100516.59;1723451;83;21137;-69
2021/01/04 06:32:30;;;;;;;45.12;25.97;;;;;;;3.15;100.00;100517.25;1709236;83;21306;-67
2021/01/04 06:35:05;;;;;;;45.08;24.00;;;;;;;3.19;100.00;100526.52;1703745;84;21638;-65
2021/01/04 06:37:32;;;;;;;44.25;25.05;;;;;;;3.22;100.00;100529.63;1715771;83;21152;-66
2021/01/04 06:40:11;;;;;;;47.95;31.00;;;;;;;3.24;100.00;100532.94;1701210;83;21201;-67
2021/01/04 06:42:42;;;;;;;44.48;25.90;;;;;;;3.25;100.00;100533.77;1721801;83;21181;-67
2021/01/04 06:45:41;;;;;;;45.38;29.92;;;;;;;3.31;100.00;100533.05;1726428;83;22115;-68
2021/01/04 06:48:44;;;;;;;41.73;28.05;;;;;;;3.28;100.00;100532.89;1724526;83;21598;-70
2021/01/04 06:51:26;;;;;;;47.10;30.52;;;;;;;3.32;100.00;100532.84;1691107;83;26501;-68
2021/01/04 06:54:33;;;;;;;49.23;32.00;;;;;;;3.27;100.00;100535.72;1674148;85;21153;-68
2021/01/04 06:57:47;;;;;;;53.95;31.95;;;;;;;3.26;100.00;100542.87;1646696;87;21152;-67
2021/01/04 07:00:35;;;;;;;54.48;31.90;;;;;;;3.26;100.00;100542.87;1646768;87;21771;-66
2021/01/04 07:03:20;;;;;;;51.50;29.85;;;;;;;3.28;100.00;100540.87;1686523;84;21149;-68
2021/01/04 07:06:29;;;;;;;47.73;29.32;;;;;;;3.32;100.00;100543.48;1689150;84;21189;-69
2021/01/04 07:09:40;;;;;;;55.98;33.25;;;;;;;3.30;100.00;100550.00;1689855;84;21052;-68
2021/01/04 07:12:13;;;;;;;49.20;28.80;;;;;;;3.23;100.00;100538.43;1690401;84;21229;-68
2021/01/04 07:15:19;;;;;;;48.17;27.37;;;;;;;3.20;100.00;100534.81;1672438;85;21022;-66
2021/01/04 07:18:07;;;;;;;;;;;;;;;3.19;100.00;100543.78;1671190;86;21588;-67
2021/01/04 07:21:09;;;;;;;51.10;30.27;;;;;;;3.26;100.00;100542.87;1672765;85;20487;-67
2021/01/04 07:24:16;;;;;;;47.53;27.13;;;;;;;3.34;100.00;100532.17;1696285;84;21172;-69
2021/01/04 07:27:12;;;;;;;64.45;32.67;;;;;;;3.38;100.00;100528.64;1698141;84;21162;-66
2021/01/04 07:30:12;;;;;;;55.83;29.32;;;;;;;3.34;100.00;100521.53;1698040;84;23535;-68
2021/01/04 07:33:02;;;;;;;52.03;30.52;;;;;;;3.40;100.00;100530.12;1696354;84;21184;-68
2021/01/04 07:35:38;;;;;;;47.90;27.20;;;;;;;3.36;100.00;100530.14;1666653;85;21160;-68
2021/01/04 07:38:54;;;;;;;54.20;33.10;;;;;;;3.33;100.00;100517.72;1646692;87;21159;-67
2021/01/04 07:41:47;;;;;;;36.05;23.18;;;;;;;3.35;100.00;100514.39;1646203;87;21668;-67
2021/01/04 07:44:36;;;;;;;39.67;24.37;;;;;;;3.45;100.00;100516.28;1680698;84;22283;-66
2021/01/04 07:47:46;;;;;;;52.13;32.05;;;;;;;3.47;100.00;100515.07;1672589;85;21196;-66
2021/01/04 07:50:34;;;;;;;46.45;27.93;;;;;;;3.48;100.00;100520.72;1689228;84;21203;-67
2021/01/04 07:53:46;;;;;;;49.85;28.83;;;;;;;3.46;100.00;100518.73;1656468;85;21145;-68
2021/01/04 07:56:49;;;;;;;45.63;26.03;;;;;;;3.48;100.00;100526.03;1674405;85;21174;-69
2021/01/04 07:59:30;;;;;;;54.77;30.92;;;;;;;3.52;100.00;100527.81;1646870;87;21194;-68
2021/01/04 08:02:28;;;;;;;56.05;29.85;;;;;;;3.51;100.00;100521.66;1647294;85;21220;-66
2021/01/04 08:05:11;;;;;;;52.15;28.87;;;;;;;3.56;100.00;100513.64;1662757;85;21220;-66
2021/01/04 08:08:25;;;;;;;50.80;30.85;;;;;;;3.59;100.00;100510.63;1685059;84;21140;-69
2021/01/04 08:11:10;;;;;;;39.90;24.70;;;;;;;3.62;100.00;100508.41;1681499;84;21166;-64
2021/01/04 08:14:28;;;;;;;45.35;28.83;;;;;;;3.61;100.00;100504.60;1700445;84;21762;-64
2021/01/04 08:17:06;;;;;;;55.15;31.10;;;;;;;3.58;100.00;100519.61;1700760;84;21168;-68
2021/01/04 08:19:36;;;;;;;56.00;33.25;;;;;;;3.57;100.00;100530.75;1646264;87;21157;-69
2021/01/04 08:22:34;;;;;;;43.73;28.25;;;;;;;3.59;100.00;100532.73;1692512;84;21169;-65
2021/01/04 08:25:43;;;;;;;51.05;30.95;;;;;;;3.64;100.00;100535.67;1640336;87;21230;-69
2021/01/04 08:28:41;;;;;;;40.17;23.30;;;;;;;3.60;100.00;100538.88;1647926;87;21351;-66
2021/01/04 08:31:27;;;;;;;53.60;30.77;;;;;;;3.64;100.00;100545.48;1693807;84;21052;-67
2021/01/04 08:34:01;;;;;;;50.52;26.82;;;;;;;3.58;100.00;100538.23;1648125;87;21120;-65
2021/01/04 08:36:32;;;;;;;46.15;26.95;;;;;;;3.50;100.00;100542.61;1694875;83;21080;-67
2021/01/04 08:39:22;;;;;;;48.63;28.25;;;;;;;3.49;100.00;100540.16;1648313;87;21181;-71
2021/01/04 08:42:17;;;;;;;61.88;39.98;;;;;;;3.52;100.00;100533.13;1673303;85;23570;-67
2021/01/04 08:44:58;;;;;;;50.95;29.20;;;;;;;3.57;100.00;100534.73;1694011;84;21172;-66
2021/01/04 08:47:30;;;;;;;45.43;27.52;;;;;;;3.62;100.00;100532.35;1647995;87;21083;-67
2021/01/04 08:50:18;;;;;;;52.98;30.12;;;;;;;3.59;100.00;100541.22;1693962;84;21636;-69
2021/01/04 08:52:49;;;;;;;47.05;29.40;;;;;;;3.55;100.00;100544.72;1646603;87;21137;-66
2021/01/04 08:55:32;;;;;;;46.15;26.42;;;;;;;3.54;100.00;100537.78;1694131;84;22890;-66
2021/01/04 08:58:25;;;;;;;51.37;27.67;;;;;;;3.64;100.00;100538.83;1648233;87;21166;-67
2021/01/04 09:01:06;;;;;;;58.63;32.85;;;;;;;3.64;100.00;100538.83;1676842;85;21916;-67
2021/01/04 09:03:35;;;;;;;62.65;34.30;;;;;;;3.72;100.00;100538.73;1689832;84;21163;-67
2021/01/04 09:06:13;;;;;;;57.75;35.45;;;;;;;3.78;100.00;100540.16;1690843;84;21158;-67
2021/01/04 09:08:47;;;;;;;45.25;24.52;;;;;;;3.88;100.00;100541.20;1689276;84;21408;-66
2021/01/04 09:11:15;;;;;;;52.30;33.07;;;;;;;3.92;100.00;100537.98;1645670;87;21211;-65
2021/01/04 09:13:42;;;;;;;46.55;26.80;;;;;;;3.90;100.00;100536.00;1675309;84;21562;-65
2021/01/04 09:16:28;;;;;;;58.65;33.88;;;;;;;3.88;100.00;100530.05;1674308;85;21223;-67
2021/01/04 09:19:19;;;;;;;51.23;32.50;;;;;;;3.86;99.89;100524.08;1676321;85;21153;-66
2021/01/04 09:21:47;;;;;;;48.28;28.67;;;;;;;3.87;100.00;100521.74;1674182;84;21266;-64
2021/01/04 09:24:28;;;;;;;53.65;29.87;;;;;;;3.91;100.00;100525.67;1645209;87;21069;-63
2021/01/04 09:27:15;;;;;;;59.80;33.95;;;;;;;3.90;99.76;100520.53;1673987;85;21192;-64
2021/01/04 09:29:51;;;;;;;62.43;35.13;;;;;;;3.86;99.67;100520.09;1645238;87;21156;-64
2021/01/04 09:32:29;;;;;;;51.02;30.15;;;;;;;3.90;99.77;100522.69;1673879;85;21157;-66
2021/01/04 09:34:56;;;;;;;50.03;28.17;;;;;;;3.90;99.77;100522.69;1675376;84;21220;-67
2021/01/04 09:37:26;;;;;;;46.50;27.93;;;;;;;3.92;99.60;100522.52;1645142;87;21591;-64
2021/01/04 09:40:04;;;;;;;52.78;30.27;;;;;;;3.92;99.60;100522.52;1674054;85;21014;-64
2021/01/04 09:42:33;;;;;;;63.00;35.35;;;;;;;3.92;99.62;100525.17;1673519;85;21080;-67
2021/01/04 09:45:12;;;;;;;56.75;32.10;;;;;;;3.92;99.74;100520.69;1688886;85;21178;-67
2021/01/04 09:47:54;;;;;;;46.60;26.12;;;;;;;3.99;99.63;100520.73;1680348;84;21208;-65
2021/01/04 09:50:29;;;;;;;53.60;30.50;;;;;;;4.04;99.60;100517.52;1681820;84;21190;-64
2021/01/04 09:53:21;;;;;;;55.52;33.48;;;;;;;4.05;99.01;100527.16;1641024;87;21176;-66
2021/01/04 09:55:49;;;;;;;51.08;30.85;;;;;;;4.05;99.01;100527.16;1689356;84;21155;-66
2021/01/04 09:58:19;;;;;;;57.43;32.83;;;;;;;4.03;98.84;100522.55;1691113;84;21194;-66
2021/01/04 10:00:47;;;;;;;51.35;30.95;;;;;;;4.08;98.72;100518.79;1691780;84;22235;-64
2021/01/04 10:03:19;;;;;;;48.87;28.67;;;;;;;4.08;98.72;100518.79;1689667;84;21066;-64
2021/01/04 10:05:49;;;;;;;56.42;31.82;;;;;;;4.03;98.52;100519.35;1694152;84;21091;-64
2021/01/04 10:08:25;;;;;;;50.33;28.25;;;;;;;4.02;98.61;100515.06;1694558;84;21209;-69
2021/01/04 10:11:01;;;;;;;33.80;20.62;;;;;;;4.07;98.79;100510.01;1705510;84;21125;-66
2021/01/04 10:13:33;;;;;;;52.77;30.07;;;;;;;4.14;98.91;100514.88;1688609;85;21384;-67
2021/01/04 10:16:07;;;;;;;54.23;30.77;;;;;;;4.18;98.67;100499.34;1699501;84;21027;-65
2021/01/04 10:18:40;;;;;;;49.00;28.20;;;;;;;4.17;98.49;100507.84;1701345;84;21142;-67
2021/01/04 10:21:22;;;;;;;;;;;;;;;4.15;98.46;100510.39;1704098;84;21773;-63
2021/01/04 10:23:58;;;;;;;53.80;30.50;;;;;;;4.17;98.57;100509.70;1695335;83;20286;-73
2021/01/04 10:26:43;;;;;;;43.03;25.53;;;;;;;4.26;98.69;100500.08;1832173;76;24120;-70
2021/01/04 10:29:14;;;;;;;46.20;27.98;;;;;;;4.23;98.40;100500.44;1811907;78;21082;-71
2021/01/04 10:31:43;;;;;;;52.50;28.65;;;;;;;4.19;98.08;100499.67;1816654;79;21479;-68
2021/01/04 10:34:15;;;;;;;55.12;32.35;;;;;;;4.13;98.15;100498.58;1794082;78;22292;-69
2021/01/04 10:36:57;;;;;;;42.67;24.05;;;;;;;4.15;98.40;100495.74;1796885;79;20983;-69
2021/01/04 10:39:33;;;;;;;45.28;26.42;;;;;;;4.19;98.41;100494.34;1815224;79;21027;-67
2021/01/04 10:42:19;;;;;;;52.67;31.27;;;;;;;4.23;98.22;100494.28;1846997;76;24756;-67
2021/01/04 10:44:47;;;;;;;46.65;26.85;;;;;;;4.11;98.00;100493.97;1817015;79;20991;-67
2021/01/04 10:47:30;;;;;;;41.28;23.95;;;;;;;4.05;98.19;100492.55;1797021;79;21330;-67
2021/01/04 10:50:38;;;;;;;40.83;24.65;;;;;;;4.04;98.32;100490.40;1784919;79;21002;-67
2021/01/04 10:53:11;;;;;;;45.70;28.40;;;;;;;4.06;98.51;100484.39;1795885;79;21577;-66
2021/01/04 10:55:54;;;;;;;46.07;26.33;;;;;;;4.13;98.64;100483.94;1840883;76;24736;-69
2021/01/04 10:58:29;;;;;;;44.85;28.70;;;;;;;4.13;98.57;100497.25;1777325;79;20995;-67
2021/01/04 11:01:10;;;;;;;44.38;28.27;;;;;;;4.15;98.48;100493.08;1807188;79;21544;-68
2021/01/04 11:03:57;;;;;;;48.30;28.80;;;;;;;4.17;98.44;100499.85;1815092;79;20972;-70
2021/01/04 11:06:33;;;;;;;48.75;29.95;;;;;;;4.26;98.50;100494.75;1801239;79;20971;-70
2021/01/04 11:09:20;;;;;;;49.60;29.40;;;;;;;4.28;97.87;100494.04;1793602;79;21024;-68
2021/01/04 11:11:50;;;;;;;42.10;23.35;;;;;;;4.24;97.64;100497.27;1781121;80;21625;-67
2021/01/04 11:14:21;;;;;;;49.90;30.10;;;;;;;4.27;97.69;100499.05;1785033;80;21587;-70
2021/01/04 11:16:51;;;;;;;;;;;;;;;4.30;97.59;100505.34;1784036;80;21039;-66
2021/01/04 11:19:34;;;;;;;43.85;23.83;;;;;;;4.36;97.65;100514.41;1763404;80;20167;-72
2021/01/04 11:22:26;;;;;;;47.88;28.57;;;;;;;4.39;97.12;100510.86;1754153;81;21222;-71
2021/01/04 11:24:55;;;;;;;42.98;26.00;;;;;;;4.37;96.91;100523.52;1753967;81;21149;-67
2021/01/04 11:27:23;;;;;;;43.38;24.98;;;;;;;4.45;97.05;100523.10;1754462;81;21373;-67
2021/01/04 11:29:51;;;;;;;47.58;27.35;;;;;;;4.44;96.65;100514.28;1763339;80;21035;-69
2021/01/04 11:32:20;;;;;;;51.53;29.48;;;;;;;4.37;96.17;100510.71;1784809;80;21181;-68
2021/01/04 11:34:49;;;;;;;37.35;23.12;;;;;;;4.36;96.42;100504.56;1784912;80;21185;-65
2021/01/04 11:37:18;;;;;;;53.25;29.35;;;;;;;4.36;96.13;100508.55;1771495;80;21220;-66
2021/01/04 11:39:47;;;;;;;45.00;25.92;;;;;;;4.29;95.95;100504.19;1773205;80;22160;-66
2021/01/04 11:42:15;;;;;;;43.08;28.15;;;;;;;4.25;96.07;100499.75;1784855;80;21097;-68
2021/01/04 11:44:42;;;;;;;36.98;24.55;;;;;;;4.20;95.99;100493.34;1784867;80;21129;-69
2021/01/04 11:47:10;;;;;;;35.78;22.87;;;;;;;4.19;96.13;100491.19;1779293;80;21116;-66
2021/01/04 11:49:37;;;;;;;48.08;25.43;;;;;;;4.22;96.36;100486.00;1778117;80;21172;-67
2021/01/04 11:52:05;;;;;;;40.38;23.92;;;;;;;4.22;96.33;100487.34;1753809;81;21213;-64
2021/01/04 11:54:32;;;;;;;48.25;29.60;;;;;;;4.19;96.22;100486.36;1773366;79;21164;-66
2021/01/04 11:57:00;;;;;;;52.60;29.27;;;;;;;4.16;96.25;100482.25;1795767;79;21611;-66
2021/01/04 11:59:27;;;;;;;60.95;32.95;;;;;;;4.17;96.16;100481.22;1779192;79;21546;-66
2021/01/04 12:01:55;;;;;;;65.35;34.78;;;;;;;4.17;96.43;100482.55;1799447;79;21124;-65
2021/01/04 12:04:23;;;;;;;55.60;31.15;;;;;;;4.16;96.42;100482.76;1777059;79;21414;-69
2021/01/04 12:06:50;;;;;;;61.53;30.68;;;;;;;4.15;96.43;100489.09;1768011;78;21990;-70
2021/01/04 12:09:18;;;;;;;57.78;33.23;;;;;;;4.13;96.55;100487.11;1768864;79;21096;-73
2021/01/04 12:11:48;;;;;;;51.28;29.67;;;;;;;4.10;96.60;100486.99;1767532;81;21571;-72
2021/01/04 12:14:17;;;;;;;54.33;29.63;;;;;;;4.10;96.70;100485.66;1783882;79;21138;-72
2021/01/04 12:16:45;;;;;;;64.27;37.00;;;;;;;4.06;96.69;100484.39;1798824;79;22244;-68
2021/01/04 12:19:13;;;;;;;52.27;30.92;;;;;;;4.02;96.76;100491.11;1773886;79;21164;-71